sensor_id;sensor_type;location;lat;lon;timestamp;temperature;humidity
6986;DHT22;3533;51.246;6.850;2022-11-20T00:01:07;19.90;41.80
6986;DHT22;3533;51.246;6.850;2022-11-20T00:03:32;19.90;41.80
6986;DHT22;3533;51.246;6.850;2022-11-20T00:06:06;19.90;41.80
6986;DHT22;3533;51.246;6.850;2022-11-20T00:08:32;19.90;41.80
6986;DHT22;3533;51.246;6.850;2022-11-20T00:11:05;19.90;41.80
6986;DHT22;3533;51.246;6.850;2022-11-20T00:13:31;19.90;41.80
6986;DHT22;3533;51.246;6.850;2022-11-20T00:15:58;19.90;41.80
6986;DHT22;3533;51.246;6.850;2022-11-20T00:18:25;19.90;41.80
6986;DHT22;3533;51.246;6.850;2022-11-20T00:20:51;19.90;41.80
6986;DHT22;3533;51.246;6.850;2022-11-20T00:23:16;19.90;41.90
6986;DHT22;3533;51.246;6.850;2022-11-20T00:25:42;19.90;41.80
6986;DHT22;3533;51.246;6.850;2022-11-20T00:28:07;19.90;41.90
6986;DHT22;3533;51.246;6.850;2022-11-20T00:30:33;19.90;41.80
6986;DHT22;3533;51.246;6.850;2022-11-20T00:32:58;19.90;41.80
6986;DHT22;3533;51.246;6.850;2022-11-20T00:35:24;19.90;41.80
6986;DHT22;3533;51.246;6.850;2022-11-20T00:37:49;19.80;41.80
6986;DHT22;3533;51.246;6.850;2022-11-20T00:40:15;19.90;41.80
6986;DHT22;3533;51.246;6.850;2022-11-20T00:42:40;19.80;41.70
6986;DHT22;3533;51.246;6.850;2022-11-20T00:45:06;19.80;41.70
6986;DHT22;3533;51.246;6.850;2022-11-20T00:47:32;19.80;41.70
6986;DHT22;3533;51.246;6.850;2022-11-20T00:49:57;19.80;41.70
6986;DHT22;3533;51.246;6.850;2022-11-20T00:52:23;19.80;41.70
6986;DHT22;3533;51.246;6.850;2022-11-20T00:54:48;19.80;41.70
6986;DHT22;3533;51.246;6.850;2022-11-20T00:57:14;19.80;41.70
6986;DHT22;3533;51.246;6.850;2022-11-20T00:59:39;19.80;41.80
6986;DHT22;3533;51.246;6.850;2022-11-20T01:02:05;19.80;41.80
6986;DHT22;3533;51.246;6.850;2022-11-20T01:04:31;19.80;41.80
6986;DHT22;3533;51.246;6.850;2022-11-20T01:06:56;19.80;42.00
6986;DHT22;3533;51.246;6.850;2022-11-20T01:09:22;19.80;41.80
6986;DHT22;3533;51.246;6.850;2022-11-20T01:11:47;19.80;41.80
6986;DHT22;3533;51.246;6.850;2022-11-20T01:14:17;19.80;48.20
6986;DHT22;3533;51.246;6.850;2022-11-20T01:16:45;19.80;41.70
6986;DHT22;3533;51.246;6.850;2022-11-20T01:19:14;19.80;41.70
6986;DHT22;3533;51.246;6.850;2022-11-20T01:21:42;19.80;41.70
6986;DHT22;3533;51.246;6.850;2022-11-20T01:24:11;19.80;41.70
6986;DHT22;3533;51.246;6.850;2022-11-20T01:26:38;19.80;41.70
6986;DHT22;3533;51.246;6.850;2022-11-20T01:29:04;19.80;41.80
6986;DHT22;3533;51.246;6.850;2022-11-20T01:31:35;19.80;41.70
6986;DHT22;3533;51.246;6.850;2022-11-20T01:34:07;19.80;41.70
6986;DHT22;3533;51.246;6.850;2022-11-20T01:36:34;19.80;41.70
6986;DHT22;3533;51.246;6.850;2022-11-20T01:39:06;19.80;41.70
6986;DHT22;3533;51.246;6.850;2022-11-20T01:41:33;19.80;41.70
6986;DHT22;3533;51.246;6.850;2022-11-20T01:44:22;19.80;41.70
6986;DHT22;3533;51.246;6.850;2022-11-20T01:46:57;19.80;41.70
6986;DHT22;3533;51.246;6.850;2022-11-20T01:49:37;19.80;41.60
6986;DHT22;3533;51.246;6.850;2022-11-20T01:52:18;19.80;41.70
6986;DHT22;3533;51.246;6.850;2022-11-20T01:54:53;19.80;41.60
6986;DHT22;3533;51.246;6.850;2022-11-20T01:57:22;19.80;41.60
6986;DHT22;3533;51.246;6.850;2022-11-20T02:00:26;19.80;41.70
6986;DHT22;3533;51.246;6.850;2022-11-20T02:03:03;19.80;41.60
6986;DHT22;3533;51.246;6.850;2022-11-20T02:07:59;19.70;41.60
6986;DHT22;3533;51.246;6.850;2022-11-20T02:10:26;19.80;41.70
6986;DHT22;3533;51.246;6.850;2022-11-20T02:12:52;19.80;41.70
6986;DHT22;3533;51.246;6.850;2022-11-20T02:15:37;19.80;41.70
6986;DHT22;3533;51.246;6.850;2022-11-20T02:18:02;19.70;41.60
6986;DHT22;3533;51.246;6.850;2022-11-20T02:20:28;19.80;41.70
6986;DHT22;3533;51.246;6.850;2022-11-20T02:25:19;19.70;41.70
6986;DHT22;3533;51.246;6.850;2022-11-20T02:27:46;19.70;41.70
6986;DHT22;3533;51.246;6.850;2022-11-20T02:30:12;19.70;41.10
6986;DHT22;3533;51.246;6.850;2022-11-20T02:32:38;19.70;41.60
6986;DHT22;3533;51.246;6.850;2022-11-20T02:37:37;19.70;41.60
6986;DHT22;3533;51.246;6.850;2022-11-20T02:40:04;19.70;41.60
6986;DHT22;3533;51.246;6.850;2022-11-20T02:42:29;19.70;41.60
6986;DHT22;3533;51.246;6.850;2022-11-20T02:44:55;19.70;41.60
6986;DHT22;3533;51.246;6.850;2022-11-20T02:47:21;19.70;41.60
6986;DHT22;3533;51.246;6.850;2022-11-20T02:49:46;19.70;41.50
6986;DHT22;3533;51.246;6.850;2022-11-20T02:52:12;19.70;41.60
6986;DHT22;3533;51.246;6.850;2022-11-20T02:54:37;19.70;41.60
6986;DHT22;3533;51.246;6.850;2022-11-20T02:57:03;19.70;41.60
6986;DHT22;3533;51.246;6.850;2022-11-20T02:59:28;19.70;41.50
6986;DHT22;3533;51.246;6.850;2022-11-20T03:01:54;19.70;41.50
6986;DHT22;3533;51.246;6.850;2022-11-20T03:04:19;19.70;41.50
6986;DHT22;3533;51.246;6.850;2022-11-20T03:06:45;19.70;41.50
6986;DHT22;3533;51.246;6.850;2022-11-20T03:09:10;19.70;41.50
6986;DHT22;3533;51.246;6.850;2022-11-20T03:11:36;19.70;41.50
6986;DHT22;3533;51.246;6.850;2022-11-20T03:14:03;19.70;41.50
6986;DHT22;3533;51.246;6.850;2022-11-20T03:16:31;19.70;41.50
6986;DHT22;3533;51.246;6.850;2022-11-20T03:18:56;19.70;41.50
6986;DHT22;3533;51.246;6.850;2022-11-20T03:21:22;19.70;41.50
6986;DHT22;3533;51.246;6.850;2022-11-20T03:23:48;19.70;41.50
6986;DHT22;3533;51.246;6.850;2022-11-20T03:26:16;19.70;41.50
6986;DHT22;3533;51.246;6.850;2022-11-20T03:28:46;19.70;41.50
6986;DHT22;3533;51.246;6.850;2022-11-20T03:31:14;19.70;41.50
6986;DHT22;3533;51.246;6.850;2022-11-20T03:33:41;19.70;41.50
6986;DHT22;3533;51.246;6.850;2022-11-20T03:36:10;19.70;41.50
6986;DHT22;3533;51.246;6.850;2022-11-20T03:38:36;19.70;41.50
6986;DHT22;3533;51.246;6.850;2022-11-20T03:41:08;19.70;41.50
6986;DHT22;3533;51.246;6.850;2022-11-20T03:43:35;19.70;41.50
6986;DHT22;3533;51.246;6.850;2022-11-20T03:46:01;19.70;41.50
6986;DHT22;3533;51.246;6.850;2022-11-20T03:48:27;19.70;41.50
6986;DHT22;3533;51.246;6.850;2022-11-20T03:51:06;19.70;41.40
6986;DHT22;3533;51.246;6.850;2022-11-20T03:53:31;19.70;41.40
6986;DHT22;3533;51.246;6.850;2022-11-20T03:55:57;19.70;41.30
6986;DHT22;3533;51.246;6.850;2022-11-20T03:58:22;19.70;41.40
6986;DHT22;3533;51.246;6.850;2022-11-20T04:00:48;19.70;41.40
6986;DHT22;3533;51.246;6.850;2022-11-20T04:03:13;19.70;41.40
6986;DHT22;3533;51.246;6.850;2022-11-20T04:05:39;19.70;41.50
6986;DHT22;3533;51.246;6.850;2022-11-20T04:08:05;19.70;44.20
6986;DHT22;3533;51.246;6.850;2022-11-20T04:10:30;19.70;44.50
6986;DHT22;3533;51.246;6.850;2022-11-20T04:12:56;19.70;42.50
6986;DHT22;3533;51.246;6.850;2022-11-20T04:15:21;19.70;41.40
6986;DHT22;3533;51.246;6.850;2022-11-20T04:17:47;19.70;41.40
6986;DHT22;3533;51.246;6.850;2022-11-20T04:20:12;19.70;41.40
6986;DHT22;3533;51.246;6.850;2022-11-20T04:22:38;19.70;41.40
6986;DHT22;3533;51.246;6.850;2022-11-20T04:25:04;19.70;41.30
6986;DHT22;3533;51.246;6.850;2022-11-20T04:27:30;19.70;41.30
6986;DHT22;3533;51.246;6.850;2022-11-20T04:29:56;19.70;41.30
6986;DHT22;3533;51.246;6.850;2022-11-20T04:32:21;19.70;41.40
6986;DHT22;3533;51.246;6.850;2022-11-20T04:34:47;19.70;41.40
6986;DHT22;3533;51.246;6.850;2022-11-20T04:37:12;19.70;41.40
6986;DHT22;3533;51.246;6.850;2022-11-20T04:39:38;19.70;41.30
6986;DHT22;3533;51.246;6.850;2022-11-20T04:42:03;19.70;41.30
6986;DHT22;3533;51.246;6.850;2022-11-20T04:44:48;19.70;41.30
6986;DHT22;3533;51.246;6.850;2022-11-20T04:47:14;19.70;41.30
6986;DHT22;3533;51.246;6.850;2022-11-20T04:49:39;19.70;41.30
6986;DHT22;3533;51.246;6.850;2022-11-20T04:52:05;19.70;41.30
6986;DHT22;3533;51.246;6.850;2022-11-20T04:54:31;19.70;41.20
6986;DHT22;3533;51.246;6.850;2022-11-20T04:56:56;19.70;41.20
6986;DHT22;3533;51.246;6.850;2022-11-20T04:59:22;19.70;41.20
6986;DHT22;3533;51.246;6.850;2022-11-20T05:01:47;19.70;41.20
6986;DHT22;3533;51.246;6.850;2022-11-20T05:04:13;19.70;41.20
6986;DHT22;3533;51.246;6.850;2022-11-20T05:06:39;19.70;41.20
6986;DHT22;3533;51.246;6.850;2022-11-20T05:09:04;19.70;41.80
6986;DHT22;3533;51.246;6.850;2022-11-20T05:11:31;19.70;41.10
6986;DHT22;3533;51.246;6.850;2022-11-20T05:13:58;19.70;41.10
6986;DHT22;3533;51.246;6.850;2022-11-20T05:16:25;19.70;41.00
6986;DHT22;3533;51.246;6.850;2022-11-20T05:18:52;19.70;41.00
6986;DHT22;3533;51.246;6.850;2022-11-20T05:21:18;19.80;41.00
6986;DHT22;3533;51.246;6.850;2022-11-20T05:23:44;19.80;41.00
6986;DHT22;3533;51.246;6.850;2022-11-20T05:26:18;19.80;41.00
6986;DHT22;3533;51.246;6.850;2022-11-20T05:28:44;19.80;40.90
6986;DHT22;3533;51.246;6.850;2022-11-20T05:31:12;19.80;41.00
6986;DHT22;3533;51.246;6.850;2022-11-20T05:33:40;19.80;40.90
6986;DHT22;3533;51.246;6.850;2022-11-20T05:36:06;19.80;40.90
6986;DHT22;3533;51.246;6.850;2022-11-20T05:38:32;19.80;40.90
6986;DHT22;3533;51.246;6.850;2022-11-20T05:41:14;19.80;40.90
6986;DHT22;3533;51.246;6.850;2022-11-20T05:43:41;19.80;40.90
6986;DHT22;3533;51.246;6.850;2022-11-20T05:46:08;19.80;40.90
6986;DHT22;3533;51.246;6.850;2022-11-20T05:48:34;19.80;40.80
6986;DHT22;3533;51.246;6.850;2022-11-20T05:51:02;19.80;40.80
6986;DHT22;3533;51.246;6.850;2022-11-20T05:53:28;19.80;40.80
6986;DHT22;3533;51.246;6.850;2022-11-20T05:56:02;19.80;40.80
6986;DHT22;3533;51.246;6.850;2022-11-20T05:58:28;19.80;40.80
6986;DHT22;3533;51.246;6.850;2022-11-20T06:00:54;19.80;40.80
6986;DHT22;3533;51.246;6.850;2022-11-20T06:03:20;19.80;40.80
6986;DHT22;3533;51.246;6.850;2022-11-20T06:05:46;19.80;40.80
6986;DHT22;3533;51.246;6.850;2022-11-20T06:08:12;19.80;40.80
6986;DHT22;3533;51.246;6.850;2022-11-20T06:10:37;19.90;41.60
6986;DHT22;3533;51.246;6.850;2022-11-20T06:13:03;19.80;40.90
6986;DHT22;3533;51.246;6.850;2022-11-20T06:15:28;19.80;40.80
6986;DHT22;3533;51.246;6.850;2022-11-20T06:17:55;19.90;40.80
6986;DHT22;3533;51.246;6.850;2022-11-20T06:20:21;19.90;40.80
6986;DHT22;3533;51.246;6.850;2022-11-20T06:22:47;19.90;40.80
6986;DHT22;3533;51.246;6.850;2022-11-20T06:25:13;19.80;40.70
6986;DHT22;3533;51.246;6.850;2022-11-20T06:27:38;19.90;40.80
6986;DHT22;3533;51.246;6.850;2022-11-20T06:30:04;19.80;40.70
6986;DHT22;3533;51.246;6.850;2022-11-20T06:32:30;19.90;40.80
6986;DHT22;3533;51.246;6.850;2022-11-20T06:34:55;19.90;40.80
6986;DHT22;3533;51.246;6.850;2022-11-20T06:37:21;19.90;40.80
6986;DHT22;3533;51.246;6.850;2022-11-20T06:39:46;19.90;40.80
6986;DHT22;3533;51.246;6.850;2022-11-20T06:42:12;19.90;40.70
6986;DHT22;3533;51.246;6.850;2022-11-20T06:44:37;19.90;40.80
6986;DHT22;3533;51.246;6.850;2022-11-20T06:47:03;19.80;40.60
6986;DHT22;3533;51.246;6.850;2022-11-20T06:49:29;19.90;40.70
6986;DHT22;3533;51.246;6.850;2022-11-20T06:51:54;19.90;40.70
6986;DHT22;3533;51.246;6.850;2022-11-20T06:54:19;19.90;40.70
6986;DHT22;3533;51.246;6.850;2022-11-20T06:56:48;19.90;40.70
6986;DHT22;3533;51.246;6.850;2022-11-20T06:59:14;19.90;40.70
6986;DHT22;3533;51.246;6.850;2022-11-20T07:01:39;19.90;40.60
6986;DHT22;3533;51.246;6.850;2022-11-20T07:04:05;19.90;40.60
6986;DHT22;3533;51.246;6.850;2022-11-20T07:06:31;19.90;40.60
6986;DHT22;3533;51.246;6.850;2022-11-20T07:08:56;19.90;40.60
6986;DHT22;3533;51.246;6.850;2022-11-20T07:11:22;19.90;40.60
6986;DHT22;3533;51.246;6.850;2022-11-20T07:13:48;19.90;40.60
6986;DHT22;3533;51.246;6.850;2022-11-20T07:16:15;19.90;40.60
6986;DHT22;3533;51.246;6.850;2022-11-20T07:18:41;19.90;40.60
6986;DHT22;3533;51.246;6.850;2022-11-20T07:21:08;19.90;40.60
6986;DHT22;3533;51.246;6.850;2022-11-20T07:23:35;19.90;40.60
6986;DHT22;3533;51.246;6.850;2022-11-20T07:26:09;19.90;40.60
6986;DHT22;3533;51.246;6.850;2022-11-20T07:28:35;19.90;40.50
6986;DHT22;3533;51.246;6.850;2022-11-20T07:31:01;19.90;40.60
6986;DHT22;3533;51.246;6.850;2022-11-20T07:33:27;19.90;40.60
6986;DHT22;3533;51.246;6.850;2022-11-20T07:35:52;19.90;40.50
6986;DHT22;3533;51.246;6.850;2022-11-20T07:38:18;19.90;40.60
6986;DHT22;3533;51.246;6.850;2022-11-20T07:40:43;19.90;40.60
6986;DHT22;3533;51.246;6.850;2022-11-20T07:43:09;19.90;40.60
6986;DHT22;3533;51.246;6.850;2022-11-20T07:45:34;19.90;40.60
6986;DHT22;3533;51.246;6.850;2022-11-20T07:48:00;19.90;40.50
6986;DHT22;3533;51.246;6.850;2022-11-20T07:50:25;19.90;40.50
6986;DHT22;3533;51.246;6.850;2022-11-20T07:52:51;19.90;40.50
6986;DHT22;3533;51.246;6.850;2022-11-20T07:55:17;19.90;41.30
6986;DHT22;3533;51.246;6.850;2022-11-20T07:57:43;19.90;40.50
6986;DHT22;3533;51.246;6.850;2022-11-20T08:00:10;19.90;40.50
6986;DHT22;3533;51.246;6.850;2022-11-20T08:02:40;19.90;40.50
6986;DHT22;3533;51.246;6.850;2022-11-20T08:05:06;19.90;40.50
6986;DHT22;3533;51.246;6.850;2022-11-20T08:07:37;19.90;40.50
6986;DHT22;3533;51.246;6.850;2022-11-20T08:10:03;19.90;40.50
6986;DHT22;3533;51.246;6.850;2022-11-20T08:12:29;19.90;40.50
6986;DHT22;3533;51.246;6.850;2022-11-20T08:15:13;19.90;40.50
6986;DHT22;3533;51.246;6.850;2022-11-20T08:17:38;19.90;40.50
6986;DHT22;3533;51.246;6.850;2022-11-20T08:20:04;19.90;40.50
6986;DHT22;3533;51.246;6.850;2022-11-20T08:22:30;19.90;40.40
6986;DHT22;3533;51.246;6.850;2022-11-20T08:24:55;19.90;40.50
6986;DHT22;3533;51.246;6.850;2022-11-20T08:27:21;19.90;40.50
6986;DHT22;3533;51.246;6.850;2022-11-20T08:29:46;19.90;40.50
6986;DHT22;3533;51.246;6.850;2022-11-20T08:32:12;19.90;40.50
6986;DHT22;3533;51.246;6.850;2022-11-20T08:34:38;19.90;40.50
6986;DHT22;3533;51.246;6.850;2022-11-20T08:37:03;19.90;40.50
6986;DHT22;3533;51.246;6.850;2022-11-20T08:39:29;19.90;40.50
6986;DHT22;3533;51.246;6.850;2022-11-20T08:41:54;19.90;40.50
6986;DHT22;3533;51.246;6.850;2022-11-20T08:44:20;19.90;40.60
6986;DHT22;3533;51.246;6.850;2022-11-20T08:46:45;19.90;40.60
6986;DHT22;3533;51.246;6.850;2022-11-20T08:49:13;19.90;40.50
6986;DHT22;3533;51.246;6.850;2022-11-20T08:51:39;19.90;40.50
6986;DHT22;3533;51.246;6.850;2022-11-20T08:54:06;19.90;40.50
6986;DHT22;3533;51.246;6.850;2022-11-20T08:56:32;19.90;40.50
6986;DHT22;3533;51.246;6.850;2022-11-20T08:58:57;19.90;40.50
6986;DHT22;3533;51.246;6.850;2022-11-20T09:01:25;19.90;40.60
6986;DHT22;3533;51.246;6.850;2022-11-20T09:03:51;19.90;40.60
6986;DHT22;3533;51.246;6.850;2022-11-20T09:06:16;19.90;40.50
6986;DHT22;3533;51.246;6.850;2022-11-20T09:08:42;19.90;40.60
6986;DHT22;3533;51.246;6.850;2022-11-20T09:11:08;19.90;40.60
6986;DHT22;3533;51.246;6.850;2022-11-20T09:13:35;19.90;40.60
6986;DHT22;3533;51.246;6.850;2022-11-20T09:16:03;19.90;40.60
6986;DHT22;3533;51.246;6.850;2022-11-20T09:18:29;19.80;40.50
6986;DHT22;3533;51.246;6.850;2022-11-20T09:20:58;19.80;41.30
6986;DHT22;3533;51.246;6.850;2022-11-20T09:23:24;19.80;40.50
6986;DHT22;3533;51.246;6.850;2022-11-20T09:25:50;19.80;40.50
6986;DHT22;3533;51.246;6.850;2022-11-20T09:28:16;19.80;40.50
6986;DHT22;3533;51.246;6.850;2022-11-20T09:30:43;19.80;40.50
6986;DHT22;3533;51.246;6.850;2022-11-20T09:33:09;19.80;40.50
6986;DHT22;3533;51.246;6.850;2022-11-20T09:35:34;19.80;40.50
6986;DHT22;3533;51.246;6.850;2022-11-20T09:38:06;19.80;40.50
6986;DHT22;3533;51.246;6.850;2022-11-20T09:40:34;19.80;40.50
6986;DHT22;3533;51.246;6.850;2022-11-20T09:43:16;19.80;40.50
6986;DHT22;3533;51.246;6.850;2022-11-20T09:54:23;19.80;40.50
6986;DHT22;3533;51.246;6.850;2022-11-20T09:57:01;19.80;40.50
6986;DHT22;3533;51.246;6.850;2022-11-20T09:59:58;19.80;40.50
6986;DHT22;3533;51.246;6.850;2022-11-20T10:02:37;19.80;40.50
6986;DHT22;3533;51.246;6.850;2022-11-20T10:08:11;19.80;40.50
6986;DHT22;3533;51.246;6.850;2022-11-20T10:16:17;19.80;40.40
6986;DHT22;3533;51.246;6.850;2022-11-20T10:19:16;19.80;40.30
6986;DHT22;3533;51.246;6.850;2022-11-20T10:27:37;19.80;40.30
6986;DHT22;3533;51.246;6.850;2022-11-20T10:30:13;19.80;40.30
6986;DHT22;3533;51.246;6.850;2022-11-20T10:32:46;19.80;40.30
6986;DHT22;3533;51.246;6.850;2022-11-20T10:35:49;19.80;40.30
6986;DHT22;3533;51.246;6.850;2022-11-20T10:38:21;19.80;40.30
6986;DHT22;3533;51.246;6.850;2022-11-20T10:40:55;19.80;40.30
6986;DHT22;3533;51.246;6.850;2022-11-20T10:43:46;19.80;40.20
6986;DHT22;3533;51.246;6.850;2022-11-20T10:46:43;19.80;40.20
6986;DHT22;3533;51.246;6.850;2022-11-20T10:49:17;19.80;40.20
6986;DHT22;3533;51.246;6.850;2022-11-20T10:52:11;19.80;40.30
6986;DHT22;3533;51.246;6.850;2022-11-20T10:54:58;19.80;40.20
6986;DHT22;3533;51.246;6.850;2022-11-20T10:57:41;19.80;40.20
6986;DHT22;3533;51.246;6.850;2022-11-20T11:00:13;19.80;40.20
6986;DHT22;3533;51.246;6.850;2022-11-20T11:07:39;19.80;40.20
6986;DHT22;3533;51.246;6.850;2022-11-20T11:12:46;19.80;40.10
6986;DHT22;3533;51.246;6.850;2022-11-20T11:15:39;19.80;40.10
6986;DHT22;3533;51.246;6.850;2022-11-20T11:18:08;19.80;40.10
6986;DHT22;3533;51.246;6.850;2022-11-20T11:20:34;19.80;40.10
6986;DHT22;3533;51.246;6.850;2022-11-20T11:22:59;19.80;40.00
6986;DHT22;3533;51.246;6.850;2022-11-20T11:25:36;19.80;40.00
6986;DHT22;3533;51.246;6.850;2022-11-20T11:30:44;19.80;40.10
6986;DHT22;3533;51.246;6.850;2022-11-20T11:33:17;19.80;40.00
6986;DHT22;3533;51.246;6.850;2022-11-20T11:35:55;19.80;40.00
6986;DHT22;3533;51.246;6.850;2022-11-20T11:38:41;19.80;40.00
6986;DHT22;3533;51.246;6.850;2022-11-20T11:41:16;19.80;40.00
6986;DHT22;3533;51.246;6.850;2022-11-20T11:43:54;19.80;40.10
6986;DHT22;3533;51.246;6.850;2022-11-20T11:46:44;19.80;40.10
6986;DHT22;3533;51.246;6.850;2022-11-20T11:49:17;19.70;40.10
6986;DHT22;3533;51.246;6.850;2022-11-20T11:52:12;19.80;40.10
6986;DHT22;3533;51.246;6.850;2022-11-20T11:54:52;19.80;40.20
6986;DHT22;3533;51.246;6.850;2022-11-20T11:57:49;19.70;40.10
6986;DHT22;3533;51.246;6.850;2022-11-20T12:00:19;19.80;40.10
6986;DHT22;3533;51.246;6.850;2022-11-20T12:05:21;19.70;40.20
6986;DHT22;3533;51.246;6.850;2022-11-20T12:16:04;19.70;40.30
6986;DHT22;3533;51.246;6.850;2022-11-20T12:18:30;19.70;40.30
6986;DHT22;3533;51.246;6.850;2022-11-20T12:21:13;19.70;40.20
6986;DHT22;3533;51.246;6.850;2022-11-20T12:24:06;19.70;40.30
6986;DHT22;3533;51.246;6.850;2022-11-20T12:26:52;19.70;40.30
6986;DHT22;3533;51.246;6.850;2022-11-20T12:29:43;19.70;40.30
6986;DHT22;3533;51.246;6.850;2022-11-20T12:37:48;19.70;40.30
6986;DHT22;3533;51.246;6.850;2022-11-20T12:40:50;19.70;40.40
6986;DHT22;3533;51.246;6.850;2022-11-20T12:43:26;19.70;40.40
6986;DHT22;3533;51.246;6.850;2022-11-20T12:49:27;19.70;40.40
6986;DHT22;3533;51.246;6.850;2022-11-20T12:52:00;19.70;40.40
6986;DHT22;3533;51.246;6.850;2022-11-20T13:06:04;19.70;40.40
6986;DHT22;3533;51.246;6.850;2022-11-20T13:08:39;19.70;40.50
6986;DHT22;3533;51.246;6.850;2022-11-20T13:16:36;19.70;40.40
6986;DHT22;3533;51.246;6.850;2022-11-20T13:19:04;19.70;40.50
6986;DHT22;3533;51.246;6.850;2022-11-20T13:21:42;19.70;40.60
6986;DHT22;3533;51.246;6.850;2022-11-20T13:27:00;19.70;40.50
6986;DHT22;3533;51.246;6.850;2022-11-20T13:29:26;19.70;40.50
6986;DHT22;3533;51.246;6.850;2022-11-20T13:32:15;19.70;40.60
6986;DHT22;3533;51.246;6.850;2022-11-20T13:34:56;19.70;40.60
6986;DHT22;3533;51.246;6.850;2022-11-20T13:37:31;19.70;40.60
6986;DHT22;3533;51.246;6.850;2022-11-20T13:42:46;19.70;40.60
6986;DHT22;3533;51.246;6.850;2022-11-20T13:45:28;19.70;40.60
6986;DHT22;3533;51.246;6.850;2022-11-20T13:47:55;19.70;40.60
6986;DHT22;3533;51.246;6.850;2022-11-20T13:56:07;19.70;40.60
6986;DHT22;3533;51.246;6.850;2022-11-20T13:58:41;19.80;40.60
6986;DHT22;3533;51.246;6.850;2022-11-20T14:03:45;19.80;40.60
6986;DHT22;3533;51.246;6.850;2022-11-20T14:06:25;19.80;40.60
6986;DHT22;3533;51.246;6.850;2022-11-20T14:08:52;19.80;40.50
6986;DHT22;3533;51.246;6.850;2022-11-20T14:11:20;19.80;40.50
6986;DHT22;3533;51.246;6.850;2022-11-20T14:14:01;19.80;40.60
6986;DHT22;3533;51.246;6.850;2022-11-20T14:16:33;19.80;40.60
6986;DHT22;3533;51.246;6.850;2022-11-20T14:21:45;19.80;40.60
6986;DHT22;3533;51.246;6.850;2022-11-20T14:24:12;19.80;40.70
6986;DHT22;3533;51.246;6.850;2022-11-20T14:26:43;19.80;40.70
6986;DHT22;3533;51.246;6.850;2022-11-20T14:29:17;19.80;40.70
6986;DHT22;3533;51.246;6.850;2022-11-20T14:31:45;19.80;40.70
6986;DHT22;3533;51.246;6.850;2022-11-20T14:34:20;19.80;40.70
6986;DHT22;3533;51.246;6.850;2022-11-20T14:36:47;19.80;40.80
6986;DHT22;3533;51.246;6.850;2022-11-20T14:39:20;19.80;40.80
6986;DHT22;3533;51.246;6.850;2022-11-20T14:41:53;19.80;40.80
6986;DHT22;3533;51.246;6.850;2022-11-20T14:44:23;19.80;40.80
6986;DHT22;3533;51.246;6.850;2022-11-20T14:46:49;19.80;40.80
6986;DHT22;3533;51.246;6.850;2022-11-20T14:49:16;19.80;40.80
6986;DHT22;3533;51.246;6.850;2022-11-20T14:51:41;19.80;40.80
6986;DHT22;3533;51.246;6.850;2022-11-20T14:56:39;19.80;40.80
6986;DHT22;3533;51.246;6.850;2022-11-20T14:59:05;19.80;40.80
6986;DHT22;3533;51.246;6.850;2022-11-20T15:01:32;19.80;40.80
6986;DHT22;3533;51.246;6.850;2022-11-20T15:04:06;19.80;40.70
6986;DHT22;3533;51.246;6.850;2022-11-20T15:06:33;19.80;40.80
6986;DHT22;3533;51.246;6.850;2022-11-20T15:08:58;19.80;40.80
6986;DHT22;3533;51.246;6.850;2022-11-20T15:11:34;19.80;40.80
6986;DHT22;3533;51.246;6.850;2022-11-20T15:14:05;19.80;40.80
6986;DHT22;3533;51.246;6.850;2022-11-20T15:16:31;19.80;40.80
6986;DHT22;3533;51.246;6.850;2022-11-20T15:18:57;19.80;40.80
6986;DHT22;3533;51.246;6.850;2022-11-20T15:21:23;19.80;40.80
6986;DHT22;3533;51.246;6.850;2022-11-20T15:23:49;19.80;40.90
6986;DHT22;3533;51.246;6.850;2022-11-20T15:26:23;19.80;40.80
6986;DHT22;3533;51.246;6.850;2022-11-20T15:28:50;19.80;40.80
6986;DHT22;3533;51.246;6.850;2022-11-20T15:31:18;19.80;40.80
6986;DHT22;3533;51.246;6.850;2022-11-20T15:33:45;19.80;40.90
6986;DHT22;3533;51.246;6.850;2022-11-20T15:36:11;19.80;40.90
6986;DHT22;3533;51.246;6.850;2022-11-20T15:38:36;19.70;40.70
6986;DHT22;3533;51.246;6.850;2022-11-20T15:41:02;19.80;40.90
6986;DHT22;3533;51.246;6.850;2022-11-20T15:43:28;19.70;40.70
6986;DHT22;3533;51.246;6.850;2022-11-20T15:45:56;19.80;40.80
6986;DHT22;3533;51.246;6.850;2022-11-20T15:48:27;19.80;40.90
6986;DHT22;3533;51.246;6.850;2022-11-20T15:53:40;19.80;40.80
6986;DHT22;3533;51.246;6.850;2022-11-20T15:56:11;19.80;40.90
6986;DHT22;3533;51.246;6.850;2022-11-20T15:58:37;19.70;40.70
6986;DHT22;3533;51.246;6.850;2022-11-20T16:01:02;19.80;40.80
6986;DHT22;3533;51.246;6.850;2022-11-20T16:03:28;19.80;40.80
6986;DHT22;3533;51.246;6.850;2022-11-20T16:05:53;19.80;40.80
6986;DHT22;3533;51.246;6.850;2022-11-20T16:08:19;19.80;40.80
6986;DHT22;3533;51.246;6.850;2022-11-20T16:10:44;19.80;40.90
6986;DHT22;3533;51.246;6.850;2022-11-20T16:13:17;19.80;40.80
6986;DHT22;3533;51.246;6.850;2022-11-20T16:16:07;19.80;40.80
6986;DHT22;3533;51.246;6.850;2022-11-20T16:18:36;19.80;40.80
6986;DHT22;3533;51.246;6.850;2022-11-20T16:21:02;19.80;40.80
6986;DHT22;3533;51.246;6.850;2022-11-20T16:23:27;19.80;40.80
6986;DHT22;3533;51.246;6.850;2022-11-20T16:25:53;19.80;40.90
6986;DHT22;3533;51.246;6.850;2022-11-20T16:28:19;19.80;40.90
6986;DHT22;3533;51.246;6.850;2022-11-20T16:30:45;19.80;40.90
6986;DHT22;3533;51.246;6.850;2022-11-20T16:33:13;19.80;40.90
6986;DHT22;3533;51.246;6.850;2022-11-20T16:35:39;19.80;40.90
6986;DHT22;3533;51.246;6.850;2022-11-20T16:38:05;19.80;40.90
6986;DHT22;3533;51.246;6.850;2022-11-20T16:40:30;19.80;40.90
6986;DHT22;3533;51.246;6.850;2022-11-20T16:42:56;19.80;40.90
6986;DHT22;3533;51.246;6.850;2022-11-20T16:45:22;19.90;41.10
6986;DHT22;3533;51.246;6.850;2022-11-20T16:47:48;19.90;41.00
6986;DHT22;3533;51.246;6.850;2022-11-20T16:50:13;19.90;41.10
6986;DHT22;3533;51.246;6.850;2022-11-20T16:52:39;19.90;41.00
6986;DHT22;3533;51.246;6.850;2022-11-20T16:55:05;19.90;41.00
6986;DHT22;3533;51.246;6.850;2022-11-20T16:57:31;19.90;41.00
6986;DHT22;3533;51.246;6.850;2022-11-20T17:00:00;19.90;41.10
6986;DHT22;3533;51.246;6.850;2022-11-20T17:02:26;19.90;41.10
6986;DHT22;3533;51.246;6.850;2022-11-20T17:04:52;19.90;41.10
6986;DHT22;3533;51.246;6.850;2022-11-20T17:07:18;19.90;41.10
6986;DHT22;3533;51.246;6.850;2022-11-20T17:09:44;19.90;41.10
6986;DHT22;3533;51.246;6.850;2022-11-20T17:12:09;19.90;41.10
6986;DHT22;3533;51.246;6.850;2022-11-20T17:14:35;19.90;41.10
6986;DHT22;3533;51.246;6.850;2022-11-20T17:17:01;19.90;41.20
6986;DHT22;3533;51.246;6.850;2022-11-20T17:19:27;19.90;41.20
6986;DHT22;3533;51.246;6.850;2022-11-20T17:21:52;19.90;41.20
6986;DHT22;3533;51.246;6.850;2022-11-20T17:24:18;19.90;41.10
6986;DHT22;3533;51.246;6.850;2022-11-20T17:26:44;19.90;42.00
6986;DHT22;3533;51.246;6.850;2022-11-20T17:29:12;19.90;41.20
6986;DHT22;3533;51.246;6.850;2022-11-20T17:31:38;20.00;41.30
6986;DHT22;3533;51.246;6.850;2022-11-20T17:34:06;20.00;41.30
6986;DHT22;3533;51.246;6.850;2022-11-20T17:36:31;19.90;41.20
6986;DHT22;3533;51.246;6.850;2022-11-20T17:38:57;20.00;41.30
6986;DHT22;3533;51.246;6.850;2022-11-20T17:41:27;20.00;41.30
6986;DHT22;3533;51.246;6.850;2022-11-20T17:43:55;20.00;41.30
6986;DHT22;3533;51.246;6.850;2022-11-20T17:46:24;20.00;41.40
6986;DHT22;3533;51.246;6.850;2022-11-20T17:48:50;20.00;41.40
6986;DHT22;3533;51.246;6.850;2022-11-20T17:51:21;20.00;41.40
6986;DHT22;3533;51.246;6.850;2022-11-20T17:53:55;20.00;41.30